Berlin, New York
Current Conditions -  °F | °C
As of 4:12 AM on Thursday 23 Oct 2014 (Local Time) from KAQW Reporting Station
Light Rain Light Rain  
Wind Chill: 42°   Ceiling: 3100
Heat Index: 46°   Visibility: 6mi
Dew Point: 44°   Wind: 8mph
Humidity: 93%   Direction: 270°W
Pressure: 29.81"   Gusts: NA
Location:  42.69°N, 73.37°W
Report Text: KAQW 230812Z AUTO 27007KT 230V320 6SM -RA BR FEW006 SCT023 OVC031 08/07 A2981 RMK AO2 P0005 T00780067
Loading
Personal Weather Stations






























Interactive Weather Map
Tropical Storm Tracking
New forecast layout! Learn more

10-Day Weather Forecast

Advertisements
Track Severe Weather on mobile